Time;durP1;ratioP1;P1;durP2;ratioP2;P2;SDS_P1;SDS_P2;PMS_P1;PMS_P2;Temp;Humidity;BMP_temperature;BMP_pressure;BME280_temperature;BME280_humidity;BME280_pressure;Samples;Min_cycle;Max_cycle;Signal;HPM_P1;HPM_P2
2024/01/08 00:00:44;;;;;;;18.90;13.20;;;;;;;0.00;100.00;99661.97;5607524;31;33496;-72
2024/01/08 00:03:48;;;;;;;4.12;2.25;;;;;;;0.05;100.00;99669.44;5606812;31;33938;-72
2024/01/08 00:06:53;;;;;;;21.17;13.88;;;;;;;-0.04;100.00;99670.16;5607517;31;34196;-72
2024/01/08 00:09:57;;;;;;;17.87;12.70;;;;;;;0.00;100.00;99669.00;5607412;31;33979;-72
2024/01/08 00:13:00;;;;;;;20.05;13.95;;;;;;;0.04;100.00;99678.25;5607315;31;34022;-72
2024/01/08 00:16:07;;;;;;;19.55;13.55;;;;;;;-0.03;100.00;99669.22;5607641;31;34778;-71
2024/01/08 00:19:09;;;;;;;21.30;14.23;;;;;;;-0.08;100.00;99681.78;5606356;31;34498;-72
2024/01/08 00:22:14;;;;;;;20.25;13.65;;;;;;;-0.17;100.00;99675.50;5607076;31;34003;-72
2024/01/08 00:25:21;;;;;;;23.70;14.10;;;;;;;-0.21;100.00;99676.69;5607230;31;34763;-72
2024/01/08 00:28:41;;;;;;;21.75;14.63;;;;;;;-0.14;100.00;99684.84;5607303;31;34662;-72
2024/01/08 00:31:45;;;;;;;5.93;2.22;;;;;;;-0.14;100.00;99693.50;5607284;31;34060;-72
2024/01/08 00:34:48;;;;;;;20.62;15.48;;;;;;;-0.26;100.00;99702.25;5607019;31;34223;-72
2024/01/08 00:37:51;;;;;;;5.65;2.75;;;;;;;-0.28;100.00;99698.94;5607015;31;34140;-72
2024/01/08 00:40:54;;;;;;;24.27;15.75;;;;;;;-0.36;100.00;99698.69;5607379;31;34245;-72
2024/01/08 00:43:57;;;;;;;21.70;16.12;;;;;;;-0.52;100.00;99706.81;5608519;31;34071;-72
2024/01/08 00:47:00;;;;;;;22.35;15.98;;;;;;;-0.46;100.00;99711.56;5609828;31;34038;-72
2024/01/08 00:50:03;;;;;;;6.07;3.75;;;;;;;-0.44;100.00;99724.50;5608895;31;34335;-71
2024/01/08 00:53:09;;;;;;;23.23;16.02;;;;;;;-0.54;100.00;99720.91;5609132;31;34915;-73
2024/01/08 00:56:15;;;;;;;21.12;15.15;;;;;;;-0.50;100.00;99732.75;5609750;31;35024;-73
2024/01/08 00:59:18;;;;;;;20.65;15.35;;;;;;;-0.52;100.00;99727.66;5610105;31;34053;-73
2024/01/08 01:02:21;;;;;;;22.23;15.63;;;;;;;-0.49;100.00;99737.03;5609582;31;34783;-74
2024/01/08 01:05:24;;;;;;;23.25;16.33;;;;;;;-0.58;100.00;99735.09;5609828;31;34039;-73
2024/01/08 01:08:27;;;;;;;14.48;3.30;;;;;;;-0.73;100.00;99729.25;5609495;31;34768;-72
2024/01/08 01:11:30;;;;;;;23.15;16.15;;;;;;;-0.66;100.00;99724.41;5609542;31;34365;-72
2024/01/08 01:14:33;;;;;;;11.70;5.47;;;;;;;-0.78;100.00;99733.13;5608703;31;34778;-71
2024/01/08 01:17:37;;;;;;;25.52;17.55;;;;;;;-0.96;100.00;99740.47;5609515;31;34367;-73
2024/01/08 01:20:40;;;;;;;5.65;2.22;;;;;;;-0.98;100.00;99745.81;5609483;31;34219;-72
2024/01/08 01:23:43;;;;;;;23.50;17.77;;;;;;;-1.01;100.00;99737.38;5609772;31;34703;-72
2024/01/08 01:26:46;;;;;;;6.85;3.20;;;;;;;-1.04;100.00;99738.44;5609528;31;34035;-73
2024/01/08 01:29:50;;;;;;;24.05;17.73;;;;;;;-1.17;100.00;99742.87;5609946;31;33347;-73
2024/01/08 01:32:52;;;;;;;6.47;2.50;;;;;;;-1.14;100.00;99741.81;5609722;31;34129;-72
2024/01/08 01:35:55;;;;;;;8.80;4.30;;;;;;;-1.14;100.00;99745.25;5608611;31;33991;-73
2024/01/08 01:38:58;;;;;;;24.50;18.73;;;;;;;-1.25;100.00;99750.37;5609423;31;34833;-73
2024/01/08 01:42:02;;;;;;;8.63;4.82;;;;;;;-1.19;100.00;99755.16;5609341;31;33976;-72
2024/01/08 01:45:06;;;;;;;24.73;18.17;;;;;;;-1.17;100.00;99748.06;5609321;31;34072;-72
2024/01/08 01:48:09;;;;;;;4.87;2.58;;;;;;;-1.12;100.00;99742.53;5609328;31;34657;-72
2024/01/08 01:51:12;;;;;;;25.60;18.30;;;;;;;-1.11;100.00;99739.81;5609012;31;34234;-72
2024/01/08 01:54:18;;;;;;;23.98;16.98;;;;;;;-1.08;100.00;99746.59;5608155;31;34141;-73
2024/01/08 01:57:24;;;;;;;5.80;3.67;;;;;;;-1.11;100.00;99741.56;5609144;31;34267;-73
2024/01/08 02:00:27;;;;;;;22.90;16.77;;;;;;;-1.06;100.00;99736.88;5609249;31;33947;-74
2024/01/08 02:03:31;;;;;;;24.75;17.45;;;;;;;-1.13;100.00;99744.31;5609246;31;34529;-73
2024/01/08 02:06:37;;;;;;;12.85;8.27;;;;;;;-1.05;100.00;99744.59;5609274;31;34000;-72
2024/01/08 02:09:40;;;;;;;24.02;16.73;;;;;;;-1.08;100.00;99737.00;5609232;31;34686;-72
2024/01/08 02:12:45;;;;;;;7.57;2.75;;;;;;;-1.07;100.00;99741.28;5609162;31;33958;-71
2024/01/08 02:15:48;;;;;;;22.73;16.23;;;;;;;-1.05;100.00;99754.16;5609550;31;34028;-71
2024/01/08 02:18:51;;;;;;;24.30;16.95;;;;;;;-1.09;100.00;99756.16;5608176;31;34710;-72
2024/01/08 02:21:53;;;;;;;4.93;2.22;;;;;;;-1.08;100.00;99757.81;5608911;31;32567;-72
2024/01/08 02:24:56;;;;;;;24.15;16.05;;;;;;;-1.12;100.00;99753.78;5609450;31;34728;-73
2024/01/08 02:27:59;;;;;;;23.92;16.25;;;;;;;-1.17;100.00;99768.91;5609047;31;34266;-73
2024/01/08 02:31:03;;;;;;;4.12;2.62;;;;;;;-1.33;100.00;99774.34;5609284;31;34022;-73
2024/01/08 02:34:06;;;;;;;23.23;16.65;;;;;;;-1.28;100.00;99765.37;5609060;31;34008;-72
2024/01/08 02:37:09;;;;;;;9.70;4.45;;;;;;;-1.21;100.00;99767.41;5609022;31;34652;-72
2024/01/08 02:40:12;;;;;;;24.73;16.90;;;;;;;-1.34;100.00;99775.28;5608951;31;34788;-74
2024/01/08 02:43:15;;;;;;;23.60;16.52;;;;;;;-1.30;100.00;99773.28;5608725;31;33844;-73
2024/01/08 02:46:18;;;;;;;11.25;5.25;;;;;;;-1.27;100.00;99774.84;5608779;31;34718;-74
2024/01/08 02:49:21;;;;;;;21.92;15.40;;;;;;;-1.43;100.00;99786.31;5608022;31;34728;-73
2024/01/08 02:52:23;;;;;;;23.38;16.17;;;;;;;-1.30;100.00;99786.28;5608684;31;34884;-72
2024/01/08 02:55:27;;;;;;;24.25;16.35;;;;;;;-1.28;100.00;99787.03;5608303;31;34019;-72
2024/01/08 02:58:32;;;;;;;3.60;2.05;;;;;;;-1.37;100.00;99788.50;5608686;31;34243;-72
2024/01/08 03:01:36;;;;;;;22.60;16.12;;;;;;;-1.31;100.00;99790.66;5607752;31;34994;-72
2024/01/08 03:04:39;;;;;;;25.23;16.45;;;;;;;-1.32;100.00;99796.00;5608604;31;34026;-70
2024/01/08 03:07:42;;;;;;;7.12;3.50;;;;;;;-1.37;100.00;99801.53;5607308;31;34061;-72
2024/01/08 03:10:44;;;;;;;22.05;16.23;;;;;;;-1.33;100.00;99792.56;5609046;31;34039;-72
2024/01/08 03:13:47;;;;;;;24.80;16.90;;;;;;;-1.42;100.00;99787.16;5607550;31;34708;-72
2024/01/08 03:16:50;;;;;;;24.83;17.25;;;;;;;-1.38;100.00;99793.81;5608418;31;34733;-70
2024/01/08 03:20:02;;;;;;;2.90;2.15;;;;;;;-1.35;100.00;99804.00;5608360;31;34213;-72
2024/01/08 03:23:09;;;;;;;23.60;16.33;;;;;;;-1.37;100.00;99811.09;5608273;31;34215;-71
2024/01/08 03:26:16;;;;;;;7.10;3.42;;;;;;;-1.40;100.00;99808.69;5607601;31;34083;-70
2024/01/08 03:29:19;;;;;;;25.05;16.62;;;;;;;-1.36;100.00;99810.16;5608356;31;34834;-71
2024/01/08 03:32:23;;;;;;;8.73;4.55;;;;;;;-1.37;100.00;99805.88;5608120;31;34942;-72
2024/01/08 03:35:27;;;;;;;21.75;15.38;;;;;;;-1.37;100.00;99817.13;5608295;31;34086;-71
2024/01/08 03:38:30;;;;;;;3.92;2.58;;;;;;;-1.24;100.00;99829.28;5608404;31;34244;-71
2024/01/08 03:41:33;;;;;;;23.67;15.90;;;;;;;-1.24;100.00;99824.06;5608081;31;34121;-72
2024/01/08 03:44:36;;;;;;;22.23;15.30;;;;;;;-1.22;100.00;99830.00;5607984;31;34775;-72
2024/01/08 03:47:39;;;;;;;10.95;2.90;;;;;;;-1.28;100.00;99835.63;5607981;31;34303;-71
2024/01/08 03:50:43;;;;;;;21.45;15.77;;;;;;;-1.28;100.00;99835.63;5608319;31;34597;-71
2024/01/08 03:53:46;;;;;;;23.17;16.20;;;;;;;-1.28;100.00;99844.28;5608112;31;34256;-71
2024/01/08 03:56:52;;;;;;;3.85;2.42;;;;;;;-1.26;100.00;99839.81;5607689;31;34105;-71
2024/01/08 03:59:54;;;;;;;23.20;16.42;;;;;;;-1.31;100.00;99847.91;5607745;31;34260;-71
2024/01/08 04:02:59;;;;;;;4.87;2.62;;;;;;;-1.33;100.00;99848.97;5607639;31;34086;-71
2024/01/08 04:06:02;;;;;;;23.08;15.70;;;;;;;-1.34;100.00;99847.28;5607617;31;35216;-71
2024/01/08 04:09:06;;;;;;;24.92;17.12;;;;;;;-1.31;100.00;99847.09;5607687;31;34015;-71
2024/01/08 04:12:09;;;;;;;5.87;2.78;;;;;;;-1.35;100.00;99856.87;5607460;31;34015;-72
2024/01/08 04:15:12;;;;;;;25.60;17.42;;;;;;;-1.41;100.00;99859.06;5606816;31;34666;-71
2024/01/08 04:18:16;;;;;;;7.50;3.53;;;;;;;-1.39;100.00;99863.22;5608180;31;34795;-72
2024/01/08 04:21:20;;;;;;;7.55;3.85;;;;;;;-1.43;100.00;99866.13;5610209;31;34076;-72
2024/01/08 04:24:24;;;;;;;23.50;17.00;;;;;;;-1.40;100.00;99864.16;5609132;31;35055;-72
2024/01/08 04:27:29;;;;;;;25.17;17.05;;;;;;;-1.34;100.00;99870.72;5610147;31;34161;-71
2024/01/08 04:30:34;;;;;;;23.85;16.98;;;;;;;-1.34;100.00;99862.91;5609977;31;34102;-71
2024/01/08 04:33:37;;;;;;;4.40;2.83;;;;;;;-1.41;100.00;99875.50;5609877;31;34718;-72
2024/01/08 04:36:44;;;;;;;23.75;16.33;;;;;;;-1.37;100.00;99882.16;5610021;31;34065;-72
2024/01/08 04:39:47;;;;;;;22.83;15.90;;;;;;;-1.36;100.00;99883.84;5610065;31;34189;-71
2024/01/08 04:42:57;;;;;;;7.75;3.97;;;;;;;-1.38;100.00;99885.69;5610241;31;34769;-71
2024/01/08 04:46:00;;;;;;;23.10;16.45;;;;;;;-1.35;100.00;99887.25;5609759;31;34754;-71
2024/01/08 04:49:03;;;;;;;17.33;5.72;;;;;;;-1.31;100.00;99894.75;5609787;31;34131;-71
2024/01/08 04:52:09;;;;;;;23.70;16.23;;;;;;;-1.32;100.00;99898.31;5609804;31;34146;-71
2024/01/08 04:55:12;;;;;;;23.55;15.98;;;;;;;-1.26;100.00;99899.66;5609610;31;34401;-71
2024/01/08 04:58:15;;;;;;;6.60;1.85;;;;;;;-1.18;100.00;99902.56;5609632;31;34056;-71
2024/01/08 05:01:18;;;;;;;23.15;15.90;;;;;;;-1.26;100.00;99912.66;5609741;31;34125;-71
2024/01/08 05:04:21;;;;;;;23.15;15.52;;;;;;;-1.23;100.00;99919.41;5609611;31;34140;-70
2024/01/08 05:07:27;;;;;;;4.68;2.30;;;;;;;-1.20;100.00;99921.81;5609579;31;34165;-71
2024/01/08 05:10:30;;;;;;;24.30;15.88;;;;;;;-1.23;100.00;99924.63;5609553;31;34384;-71
2024/01/08 05:13:39;;;;;;;24.70;16.70;;;;;;;-1.22;100.00;99921.09;5608709;31;35156;-71
2024/01/08 05:16:42;;;;;;;23.12;16.35;;;;;;;-1.24;100.00;99922.94;5608916;31;33987;-72
2024/01/08 05:19:47;;;;;;;23.50;15.93;;;;;;;-1.16;100.00;99934.50;5609818;31;34145;-72
2024/01/08 05:22:50;;;;;;;24.83;15.32;;;;;;;-1.17;100.00;99935.47;5608926;31;34138;-71
2024/01/08 05:25:58;;;;;;;4.25;1.73;;;;;;;-1.18;100.00;99935.56;5608630;31;34355;-72
2024/01/08 05:29:02;;;;;;;21.65;14.90;;;;;;;-1.08;100.00;99952.22;5583008;31;34679;-72
2024/01/08 05:32:06;;;;;;;22.33;14.50;;;;;;;-1.21;100.00;99949.59;5608455;31;34176;-72
2024/01/08 05:35:10;;;;;;;24.20;15.88;;;;;;;-1.21;100.00;99960.00;5609347;31;33752;-71
2024/01/08 05:38:13;;;;;;;23.35;15.40;;;;;;;-1.19;100.00;99952.09;5609232;31;35486;-72
2024/01/08 05:41:18;;;;;;;21.42;14.77;;;;;;;-1.32;100.00;99959.91;5609537;31;34074;-72
2024/01/08 05:44:22;;;;;;;23.75;16.33;;;;;;;-1.32;100.00;99960.75;5608792;31;34739;-73
2024/01/08 05:47:27;;;;;;;23.67;16.17;;;;;;;-1.28;100.00;99976.16;5609297;31;34728;-72
2024/01/08 05:50:30;;;;;;;25.35;17.62;;;;;;;-1.45;100.00;99985.91;5609395;31;34098;-72
2024/01/08 05:53:33;;;;;;;8.10;4.18;;;;;;;-1.50;100.00;99990.56;5609120;31;34748;-72
2024/01/08 05:56:37;;;;;;;25.88;18.00;;;;;;;-1.55;100.00;99997.84;5609011;31;35309;-72
2024/01/08 05:59:40;;;;;;;9.43;4.90;;;;;;;-1.60;100.00;99992.13;5608657;31;34735;-72
2024/01/08 06:02:44;;;;;;;26.98;18.42;;;;;;;-1.57;100.00;99993.69;5608918;31;34097;-72
2024/01/08 06:05:47;;;;;;;24.85;17.05;;;;;;;-1.47;100.00;100003.41;5609064;31;34149;-72
2024/01/08 06:08:50;;;;;;;26.40;18.10;;;;;;;-1.47;100.00;100003.41;5608985;31;34361;-72
2024/01/08 06:11:55;;;;;;;3.35;2.10;;;;;;;-1.43;100.00;100006.63;5609300;31;33967;-72
2024/01/08 06:14:58;;;;;;;24.65;17.50;;;;;;;-1.44;100.00;100010.16;5609202;31;34780;-72
2024/01/08 06:18:04;;;;;;;25.05;17.37;;;;;;;-1.35;100.00;100004.34;5607989;31;34023;-72
2024/01/08 06:21:10;;;;;;;23.83;16.70;;;;;;;-1.37;100.00;100008.81;5608842;31;34806;-72
2024/01/08 06:24:13;;;;;;;4.32;2.62;;;;;;;-1.32;100.00;100018.00;5608662;31;33991;-71
2024/01/08 06:27:16;;;;;;;22.98;16.62;;;;;;;-1.28;100.00;100018.62;5608528;31;35461;-72
2024/01/08 06:30:20;;;;;;;25.02;17.45;;;;;;;-1.33;100.00;100037.13;5608889;31;33922;-71
2024/01/08 06:33:22;;;;;;;27.85;18.67;;;;;;;-1.36;100.00;100042.56;5608908;31;34741;-72
2024/01/08 06:36:26;;;;;;;12.35;4.45;;;;;;;-1.50;100.00;100047.78;5608185;31;33953;-72
2024/01/08 06:39:29;;;;;;;29.33;19.35;;;;;;;-1.46;100.00;100040.66;5609114;31;34009;-72
2024/01/08 06:42:32;;;;;;;26.40;18.55;;;;;;;-1.50;100.00;100058.19;5608576;31;34030;-71
2024/01/08 06:45:55;;;;;;;7.95;3.50;;;;;;;-1.54;100.00;100061.94;5608542;31;34043;-70
2024/01/08 06:48:59;;;;;;;29.77;19.33;;;;;;;-1.57;100.00;100069.94;5609288;31;34104;-70
2024/01/08 06:52:05;;;;;;;25.98;18.42;;;;;;;-1.60;100.00;100056.31;5607911;31;34201;-72
2024/01/08 06:55:12;;;;;;;8.48;3.87;;;;;;;-1.55;100.00;100070.66;5608355;31;34229;-71
2024/01/08 06:58:15;;;;;;;25.02;17.95;;;;;;;-1.52;100.00;100077.47;5608234;31;33260;-72
2024/01/08 07:01:23;;;;;;;26.40;16.27;;;;;;;-1.50;100.00;100080.81;5608499;31;34477;-72
2024/01/08 07:04:27;;;;;;;26.45;17.15;;;;;;;-1.46;100.00;100085.72;5606700;31;34118;-73
2024/01/08 07:07:31;;;;;;;23.45;16.20;;;;;;;-1.38;100.00;100088.66;5608456;31;34874;-72
2024/01/08 07:10:35;;;;;;;23.73;16.85;;;;;;;-1.28;100.00;100098.44;5581871;31;34729;-72
2024/01/08 07:13:37;;;;;;;3.00;1.67;;;;;;;-1.20;100.00;100096.16;5608071;31;33972;-72
2024/01/08 07:16:43;;;;;;;25.48;17.80;;;;;;;-1.14;100.00;100098.37;5607673;31;35118;-72
2024/01/08 07:19:47;;;;;;;23.98;17.27;;;;;;;-1.10;100.00;100113.69;5607394;31;34085;-72
2024/01/08 07:22:53;;;;;;;28.55;17.80;;;;;;;-1.05;100.00;100105.59;5608434;31;34159;-72
2024/01/08 07:25:58;;;;;;;25.15;17.12;;;;;;;-1.13;100.00;100116.50;5607935;31;34192;-72
2024/01/08 07:29:01;;;;;;;9.15;4.28;;;;;;;-1.13;100.00;100121.72;5607764;31;35225;-71
2024/01/08 07:32:04;;;;;;;29.15;18.55;;;;;;;-1.12;100.00;100126.00;5607787;31;34134;-71
2024/01/08 07:35:08;;;;;;;27.75;18.67;;;;;;;-1.12;100.00;100125.16;5606708;31;34852;-70
2024/01/08 07:38:11;;;;;;;5.15;2.42;;;;;;;-1.17;100.00;100135.87;5607778;31;34104;-72
2024/01/08 07:41:15;;;;;;;28.17;19.10;;;;;;;-1.14;100.00;100140.03;5607666;31;35063;-71
2024/01/08 07:44:18;;;;;;;26.35;17.50;;;;;;;-1.08;100.00;100139.63;5607167;31;34078;-72
2024/01/08 07:47:26;;;;;;;27.98;18.05;;;;;;;-1.08;100.00;100148.28;5606713;31;34737;-71
2024/01/08 07:50:31;;;;;;;26.80;18.77;;;;;;;-1.05;100.00;100158.50;5607534;31;35143;-71
2024/01/08 07:53:34;;;;;;;27.70;17.10;;;;;;;-0.94;100.00;100160.41;5607585;31;34062;-72
2024/01/08 07:56:37;;;;;;;30.02;16.45;;;;;;;-0.98;100.00;100153.72;5609918;31;34258;-73
2024/01/08 07:59:56;;;;;;;24.23;16.90;;;;;;;-0.92;100.00;100174.16;5610234;31;34484;-72
2024/01/08 08:02:59;;;;;;;27.05;17.85;;;;;;;-0.97;100.00;100181.44;5609965;31;33999;-72
2024/01/08 08:06:02;;;;;;;25.08;17.35;;;;;;;-0.85;100.00;100180.63;5609937;31;34288;-73
2024/01/08 08:09:06;;;;;;;28.10;18.33;;;;;;;-0.87;100.00;100187.69;5609891;31;34135;-72
2024/01/08 08:12:09;;;;;;;25.65;18.02;;;;;;;-0.88;100.00;100189.50;5610052;31;34728;-72
2024/01/08 08:15:13;;;;;;;26.33;17.45;;;;;;;-1.08;100.00;100194.31;5609952;31;34107;-72
2024/01/08 08:18:16;;;;;;;25.98;18.65;;;;;;;-0.93;100.00;100201.97;5609806;31;34766;-72
2024/01/08 08:21:19;;;;;;;25.62;17.48;;;;;;;-0.94;100.00;100200.28;5610066;31;34021;-72
2024/01/08 08:24:24;;;;;;;27.73;18.02;;;;;;;-0.81;100.00;100212.50;5609198;31;34105;-70
2024/01/08 08:27:27;;;;;;;25.27;16.73;;;;;;;-0.94;100.00;100212.47;5609071;31;34069;-70
2024/01/08 08:30:30;;;;;;;24.30;16.58;;;;;;;-0.75;100.00;100217.31;5609762;31;34583;-69
2024/01/08 08:33:34;;;;;;;25.83;16.98;;;;;;;-0.80;100.00;100217.63;5609832;31;34319;-69
2024/01/08 08:36:41;;;;;;;26.35;17.75;;;;;;;-0.70;100.00;100217.84;5609938;31;35214;-70
2024/01/08 08:39:49;;;;;;;25.77;16.48;;;;;;;-0.64;100.00;100223.50;5609138;31;34138;-69
2024/01/08 08:42:52;;;;;;;26.73;16.30;;;;;;;-0.50;100.00;100227.81;5609803;31;34013;-69
2024/01/08 08:46:01;;;;;;;27.08;16.65;;;;;;;-0.51;100.00;100226.13;5609796;31;34010;-71
2024/01/08 08:49:08;;;;;;;26.10;16.20;;;;;;;-0.52;100.00;100227.06;5609760;31;34206;-71
2024/01/08 08:52:13;;;;;;;27.15;16.83;;;;;;;-0.40;100.00;100228.88;5609848;31;34748;-72
2024/01/08 08:55:16;;;;;;;22.95;15.88;;;;;;;-0.35;100.00;100231.16;5609406;31;34143;-70
2024/01/08 08:58:24;;;;;;;21.98;14.87;;;;;;;-0.43;100.00;100224.69;5609404;31;34758;-70
2024/01/08 09:01:27;;;;;;;23.27;15.25;;;;;;;-0.24;100.00;100234.69;5609386;31;34580;-71
2024/01/08 09:04:30;;;;;;;24.92;15.45;;;;;;;-0.20;100.00;100240.56;5608500;31;35564;-70
2024/01/08 09:07:33;;;;;;;23.35;15.07;;;;;;;0.02;100.00;100243.38;5609371;31;33715;-71
2024/01/08 09:10:36;;;;;;;23.35;15.35;;;;;;;0.11;100.00;100236.69;5609328;31;35043;-70
2024/01/08 09:13:39;;;;;;;23.05;15.25;;;;;;;0.17;100.00;100251.94;5609176;31;34206;-70
2024/01/08 09:16:44;;;;;;;22.20;15.07;;;;;;;0.19;100.00;100250.91;5608918;31;34718;-71
2024/01/08 09:19:49;;;;;;;25.55;15.35;;;;;;;0.17;100.00;100251.94;5608246;31;33985;-70
2024/01/08 09:22:59;;;;;;;24.02;16.17;;;;;;;0.12;100.00;100257.47;5609247;31;34761;-71
2024/01/08 09:26:04;;;;;;;23.95;15.95;;;;;;;0.22;100.00;100260.28;5609116;31;34795;-71
2024/01/08 09:29:12;;;;;;;25.33;15.27;;;;;;;0.09;100.00;100264.69;5608503;31;34200;-70
2024/01/08 09:32:16;;;;;;;26.08;16.33;;;;;;;0.25;100.00;100258.28;5609061;31;34382;-71
2024/01/08 09:35:27;;;;;;;24.33;15.77;;;;;;;0.01;100.00;100267.78;5609345;31;34005;-71
2024/01/08 09:38:45;;;;;;;23.15;15.52;;;;;;;0.13;100.00;100259.16;5609351;31;34027;-70
2024/01/08 09:41:52;;;;;;;23.98;14.87;;;;;;;0.15;100.00;100256.41;5608963;31;34256;-71
2024/01/08 09:44:56;;;;;;;24.65;15.63;;;;;;;0.22;100.00;100261.13;5608681;31;34720;-71
2024/01/08 09:48:28;;;;;;;21.85;14.73;;;;;;;0.38;100.00;100253.09;5609014;31;34246;-70
2024/01/08 09:51:31;;;;;;;20.95;14.50;;;;;;;0.40;100.00;100251.19;5609086;31;34698;-71
2024/01/08 09:54:38;;;;;;;22.73;14.60;;;;;;;0.57;100.00;100250.03;5608455;31;34646;-72
2024/01/08 09:57:42;;;;;;;20.83;14.20;;;;;;;0.67;100.00;100267.56;5608197;31;34044;-70
2024/01/08 10:00:59;;;;;;;25.42;14.98;;;;;;;0.64;100.00;100254.69;5596747;31;34897;-71
2024/01/08 10:04:03;;;;;;;21.23;13.90;;;;;;;0.80;100.00;100257.91;5609033;31;34433;-71
2024/01/08 10:07:07;;;;;;;23.90;14.32;;;;;;;0.69;100.00;100262.19;5609035;31;35097;-70
2024/01/08 10:10:13;;;;;;;22.25;14.95;;;;;;;0.91;100.00;100257.16;5608748;31;34834;-70
2024/01/08 10:13:19;;;;;;;23.05;14.10;;;;;;;0.88;100.00;100260.78;5608627;31;34271;-71
2024/01/08 10:16:27;;;;;;;24.63;14.82;;;;;;;0.95;100.00;100266.44;5608307;31;33973;-70
2024/01/08 10:20:04;;;;;;;26.25;14.90;;;;;;;1.01;100.00;100267.75;5607999;31;34061;-71
2024/01/08 10:23:24;;;;;;;22.50;14.98;;;;;;;1.02;100.00;100262.41;5608986;31;34679;-72
2024/01/08 10:26:31;;;;;;;25.00;15.18;;;;;;;1.27;100.00;100258.88;5608854;31;34024;-72
2024/01/08 10:29:39;;;;;;;22.37;14.30;;;;;;;1.30;100.00;100254.28;5608756;31;34048;-71
2024/01/08 10:32:43;;;;;;;21.58;14.02;;;;;;;1.36;100.00;100252.97;5608755;31;34806;-72
2024/01/08 10:35:46;;;;;;;24.37;14.90;;;;;;;1.06;100.00;100260.44;5608623;31;35071;-71
2024/01/08 10:38:50;;;;;;;24.80;13.30;;;;;;;1.37;100.00;100253.81;5608502;31;34037;-72
2024/01/08 10:41:58;;;;;;;22.10;13.48;;;;;;;1.43;100.00;100256.81;5608760;31;34193;-72
2024/01/08 10:45:05;;;;;;;19.47;13.47;;;;;;;1.38;100.00;100263.31;5610340;31;33980;-72
2024/01/08 10:48:17;;;;;;;31.42;13.57;;;;;;;1.34;100.00;100260.09;5609359;31;34734;-72
2024/01/08 10:51:21;;;;;;;20.88;13.50;;;;;;;1.56;100.00;100261.94;5596307;31;34432;-71
2024/01/08 10:54:45;;;;;;;20.73;13.05;;;;;;;1.62;100.00;100257.13;5609987;31;34127;-72
2024/01/08 10:58:01;;;;;;;20.92;13.55;;;;;;;1.51;100.00;100259.69;5608685;31;34708;-73
2024/01/08 11:01:07;;;;;;;21.02;13.77;;;;;;;1.70;100.00;100259.97;5607977;31;34145;-72
2024/01/08 11:04:12;;;;;;;19.77;13.45;;;;;;;1.83;100.00;100265.16;5595256;31;34726;-71
2024/01/08 11:07:16;;;;;;;19.55;13.10;;;;;;;1.98;100.00;100261.37;5608188;31;34153;-73
2024/01/08 11:10:22;;;;;;;17.35;11.52;;;;;;;1.95;100.00;100266.81;5608497;31;34037;-73
2024/01/08 11:13:25;;;;;;;21.23;12.80;;;;;;;2.12;100.00;100265.56;5608222;31;34782;-70
2024/01/08 11:16:29;;;;;;;17.33;11.80;;;;;;;1.91;100.00;100268.00;5608682;31;33992;-71
2024/01/08 11:19:32;;;;;;;20.70;12.52;;;;;;;2.11;100.00;100269.97;5608158;31;34200;-72
2024/01/08 11:22:37;;;;;;;18.12;12.32;;;;;;;2.41;100.00;100258.09;5608022;31;34917;-71
2024/01/08 11:25:49;;;;;;;18.90;12.05;;;;;;;2.42;100.00;100273.66;5607904;31;34224;-71
2024/01/08 11:29:03;;;;;;;;;;;;;;;2.80;100.00;100275.09;5607014;31;34015;-71
2024/01/08 11:32:24;;;;;;;17.65;10.30;;;;;;;2.79;100.00;100263.78;5608234;31;34217;-71
2024/01/08 11:35:28;;;;;;;10.63;6.72;;;;;;;3.02;100.00;100272.44;5608179;31;33975;-70
2024/01/08 11:38:33;;;;;;;11.10;5.85;;;;;;;2.83;100.00;100273.06;5607748;31;34967;-72
2024/01/08 11:41:37;;;;;;;15.95;9.88;;;;;;;2.76;95.53;100278.91;5608624;31;34673;-71
2024/01/08 11:44:40;;;;;;;13.07;6.82;;;;;;;3.19;98.89;100274.56;5607900;31;34866;-71
2024/01/08 11:47:44;;;;;;;18.40;11.93;;;;;;;2.98;96.06;100287.56;5607694;31;34739;-71
2024/01/08 11:50:47;;;;;;;19.08;11.45;;;;;;;2.96;100.00;100289.47;5607814;31;34048;-72
2024/01/08 11:53:52;;;;;;;19.02;11.77;;;;;;;2.34;100.00;100296.16;5608055;31;34739;-72
2024/01/08 11:56:55;;;;;;;17.52;11.25;;;;;;;2.39;100.00;100289.62;5607812;31;34062;-71
2024/01/08 11:59:58;;;;;;;16.50;10.80;;;;;;;2.46;100.00;100298.69;5607525;31;34085;-71
2024/01/08 12:03:03;;;;;;;16.08;10.65;;;;;;;2.41;100.00;100290.34;5607419;31;34694;-70
2024/01/08 12:06:08;;;;;;;17.27;9.93;;;;;;;2.32;100.00;100291.06;5607635;31;34066;-72
2024/01/08 12:09:11;;;;;;;19.92;10.95;;;;;;;2.18;100.00;100293.84;5607727;31;35214;-70
2024/01/08 12:12:17;;;;;;;18.55;11.00;;;;;;;2.11;100.00;100296.12;5607347;31;34106;-71
2024/01/08 12:15:21;;;;;;;16.60;10.60;;;;;;;1.92;100.00;100301.06;5607385;31;34072;-70
2024/01/08 12:18:24;;;;;;;16.62;10.63;;;;;;;1.78;100.00;100306.50;5599735;31;244561;-69
2024/01/08 12:21:27;;;;;;;15.88;10.50;;;;;;;1.67;100.00;100299.44;5606995;31;34839;-71
2024/01/08 12:24:49;;;;;;;18.00;11.10;;;;;;;1.52;100.00;100299.72;5607170;31;34961;-72
2024/01/08 12:27:59;;;;;;;19.02;10.70;;;;;;;1.64;100.00;100307.53;5606287;31;34788;-70
2024/01/08 12:31:02;;;;;;;17.87;10.80;;;;;;;1.33;100.00;100307.25;5607049;31;34669;-71
2024/01/08 12:34:08;;;;;;;18.30;11.40;;;;;;;1.35;100.00;100319.28;5606942;31;34066;-71
2024/01/08 12:37:13;;;;;;;16.02;10.55;;;;;;;1.31;100.00;100310.78;5606909;31;34014;-71
2024/01/08 12:40:16;;;;;;;15.95;9.65;;;;;;;1.45;100.00;100315.06;5608289;31;34374;-70
2024/01/08 12:43:21;;;;;;;17.17;10.23;;;;;;;1.55;100.00;100313.41;5610049;31;32938;-71
2024/01/08 12:46:23;;;;;;;19.87;10.30;;;;;;;1.81;100.00;100318.50;5609682;31;34073;-70
2024/01/08 12:49:26;;;;;;;16.98;10.20;;;;;;;2.07;100.00;100312.19;5609757;31;34688;-71
2024/01/08 12:52:29;;;;;;;16.35;10.38;;;;;;;2.22;100.00;100312.81;5608987;31;34197;-72
2024/01/08 12:55:32;;;;;;;16.85;10.15;;;;;;;2.26;100.00;100312.47;5609508;31;33945;-72
2024/01/08 12:58:35;;;;;;;19.48;10.70;;;;;;;2.33;100.00;100316.25;5609529;31;34700;-72
2024/01/08 13:01:41;;;;;;;16.77;10.82;;;;;;;2.06;100.00;100326.19;5609619;31;34242;-72
2024/01/08 13:04:45;;;;;;;15.82;10.35;;;;;;;1.81;100.00;100328.97;5609801;31;34181;-71
2024/01/08 13:07:50;;;;;;;15.32;10.07;;;;;;;1.76;100.00;100334.53;5609671;31;34019;-72
2024/01/08 13:10:53;;;;;;;16.15;10.43;;;;;;;1.59;100.00;100332.34;5609330;31;34333;-71
2024/01/08 13:13:57;;;;;;;15.52;10.60;;;;;;;1.45;100.00;100327.28;5609468;31;34794;-71
2024/01/08 13:17:00;;;;;;;18.58;11.00;;;;;;;1.38;100.00;100339.94;5609455;31;32472;-71
2024/01/08 13:20:08;;;;;;;19.17;10.77;;;;;;;1.31;100.00;100333.47;5609290;31;34654;-70
2024/01/08 13:23:30;;;;;;;16.65;10.82;;;;;;;1.24;100.00;100333.09;5608454;31;35217;-71
2024/01/08 13:26:36;;;;;;;16.37;11.02;;;;;;;1.19;100.00;100337.81;5608318;31;34106;-70
2024/01/08 13:29:40;;;;;;;16.00;11.10;;;;;;;1.16;100.00;100347.66;5609054;31;34741;-72
2024/01/08 13:32:45;;;;;;;17.15;10.48;;;;;;;1.12;100.00;100348.78;5609313;31;35494;-71
2024/01/08 13:35:48;;;;;;;20.40;10.93;;;;;;;1.09;100.00;100352.47;5609326;31;34061;-71
2024/01/08 13:38:52;;;;;;;19.75;11.50;;;;;;;1.12;100.00;100349.63;5609444;31;34647;-71
2024/01/08 13:41:56;;;;;;;20.15;10.77;;;;;;;1.15;100.00;100359.06;5609003;31;34912;-71
2024/01/08 13:45:04;;;;;;;17.73;10.95;;;;;;;1.23;100.00;100361.94;5609141;31;34249;-71
2024/01/08 13:48:07;;;;;;;20.27;10.95;;;;;;;1.26;100.00;100361.72;5609091;31;34224;-71
2024/01/08 13:51:16;;;;;;;16.20;11.07;;;;;;;1.27;100.00;100366.84;5607576;31;35409;-70
2024/01/08 13:54:19;;;;;;;18.95;11.07;;;;;;;1.46;100.00;100363.75;5609135;31;34028;-71
2024/01/08 13:57:22;;;;;;;15.95;10.60;;;;;;;1.69;100.00;100373.38;5608966;31;34487;-71
2024/01/08 14:00:26;;;;;;;17.17;11.05;;;;;;;1.78;100.00;100377.13;5609030;31;34021;-70
2024/01/08 14:03:30;;;;;;;15.63;10.43;;;;;;;2.00;100.00;100386.84;5609101;31;35082;-71